sensor_id;sensor_type;location;lat;lon;timestamp;P1;durP1;ratioP1;P2;durP2;ratioP2
7361;SDS011;3721;44.490;11.220;2022-07-29T00:00:41;7.20;;;4.93;;
7361;SDS011;3721;44.490;11.220;2022-07-29T00:03:10;9.73;;;5.13;;
7361;SDS011;3721;44.490;11.220;2022-07-29T00:05:38;7.90;;;5.63;;
7361;SDS011;3721;44.490;11.220;2022-07-29T00:08:04;8.80;;;6.40;;
7361;SDS011;3721;44.490;11.220;2022-07-29T00:10:30;6.70;;;4.67;;
7361;SDS011;3721;44.490;11.220;2022-07-29T00:12:56;10.40;;;4.80;;
7361;SDS011;3721;44.490;11.220;2022-07-29T00:15:21;12.33;;;5.03;;
7361;SDS011;3721;44.490;11.220;2022-07-29T00:17:47;7.60;;;5.70;;
7361;SDS011;3721;44.490;11.220;2022-07-29T00:20:13;13.07;;;8.40;;
7361;SDS011;3721;44.490;11.220;2022-07-29T00:22:39;8.23;;;5.40;;
7361;SDS011;3721;44.490;11.220;2022-07-29T00:25:05;7.43;;;5.20;;
7361;SDS011;3721;44.490;11.220;2022-07-29T00:27:32;9.00;;;5.60;;
7361;SDS011;3721;44.490;11.220;2022-07-29T00:29:58;10.00;;;5.43;;
7361;SDS011;3721;44.490;11.220;2022-07-29T00:32:24;11.30;;;5.00;;
7361;SDS011;3721;44.490;11.220;2022-07-29T00:34:50;9.83;;;6.03;;
7361;SDS011;3721;44.490;11.220;2022-07-29T00:37:34;10.97;;;6.40;;
7361;SDS011;3721;44.490;11.220;2022-07-29T00:40:00;11.20;;;6.17;;
7361;SDS011;3721;44.490;11.220;2022-07-29T00:42:26;8.27;;;5.80;;
7361;SDS011;3721;44.490;11.220;2022-07-29T00:44:52;16.47;;;7.20;;
7361;SDS011;3721;44.490;11.220;2022-07-29T00:47:18;8.40;;;6.23;;
7361;SDS011;3721;44.490;11.220;2022-07-29T00:49:43;8.53;;;6.27;;
7361;SDS011;3721;44.490;11.220;2022-07-29T00:52:09;9.63;;;6.50;;
7361;SDS011;3721;44.490;11.220;2022-07-29T00:54:37;9.10;;;6.87;;
7361;SDS011;3721;44.490;11.220;2022-07-29T00:57:05;10.93;;;6.50;;
7361;SDS011;3721;44.490;11.220;2022-07-29T00:59:35;8.40;;;5.60;;
7361;SDS011;3721;44.490;11.220;2022-07-29T01:02:01;10.10;;;5.20;;
7361;SDS011;3721;44.490;11.220;2022-07-29T01:04:28;8.50;;;5.20;;
7361;SDS011;3721;44.490;11.220;2022-07-29T01:06:54;9.93;;;4.67;;
7361;SDS011;3721;44.490;11.220;2022-07-29T01:09:20;9.13;;;5.53;;
7361;SDS011;3721;44.490;11.220;2022-07-29T01:11:47;8.07;;;5.50;;
7361;SDS011;3721;44.490;11.220;2022-07-29T01:14:14;11.37;;;6.07;;
7361;SDS011;3721;44.490;11.220;2022-07-29T01:30:34;9.07;;;5.07;;
7361;SDS011;3721;44.490;11.220;2022-07-29T01:33:07;7.63;;;4.97;;
7361;SDS011;3721;44.490;11.220;2022-07-29T01:35:58;8.23;;;5.60;;
7361;SDS011;3721;44.490;11.220;2022-07-29T01:38:29;8.20;;;5.10;;
7361;SDS011;3721;44.490;11.220;2022-07-29T01:41:01;8.17;;;5.57;;
7361;SDS011;3721;44.490;11.220;2022-07-29T01:43:38;7.90;;;4.80;;
7361;SDS011;3721;44.490;11.220;2022-07-29T01:46:25;7.73;;;5.80;;
7361;SDS011;3721;44.490;11.220;2022-07-29T01:49:18;8.17;;;5.10;;
7361;SDS011;3721;44.490;11.220;2022-07-29T01:51:46;7.30;;;4.70;;
7361;SDS011;3721;44.490;11.220;2022-07-29T01:54:21;7.03;;;5.10;;
7361;SDS011;3721;44.490;11.220;2022-07-29T01:57:03;7.70;;;5.10;;
7361;SDS011;3721;44.490;11.220;2022-07-29T01:59:31;10.63;;;5.07;;
7361;SDS011;3721;44.490;11.220;2022-07-29T02:01:59;9.40;;;5.50;;
7361;SDS011;3721;44.490;11.220;2022-07-29T02:04:26;5.53;;;4.23;;
7361;SDS011;3721;44.490;11.220;2022-07-29T02:06:54;6.80;;;4.80;;
7361;SDS011;3721;44.490;11.220;2022-07-29T02:09:26;10.10;;;5.70;;
7361;SDS011;3721;44.490;11.220;2022-07-29T02:11:55;7.30;;;4.67;;
7361;SDS011;3721;44.490;11.220;2022-07-29T02:14:22;8.23;;;4.40;;
7361;SDS011;3721;44.490;11.220;2022-07-29T02:16:50;6.40;;;4.90;;
7361;SDS011;3721;44.490;11.220;2022-07-29T02:19:19;8.30;;;4.87;;
7361;SDS011;3721;44.490;11.220;2022-07-29T02:21:48;8.30;;;5.33;;
7361;SDS011;3721;44.490;11.220;2022-07-29T02:24:18;11.30;;;4.63;;
7361;SDS011;3721;44.490;11.220;2022-07-29T02:26:46;7.33;;;4.43;;
7361;SDS011;3721;44.490;11.220;2022-07-29T02:29:13;10.13;;;4.33;;
7361;SDS011;3721;44.490;11.220;2022-07-29T02:31:40;5.80;;;4.53;;
7361;SDS011;3721;44.490;11.220;2022-07-29T02:34:08;6.30;;;4.23;;
7361;SDS011;3721;44.490;11.220;2022-07-29T02:36:36;7.13;;;4.50;;
7361;SDS011;3721;44.490;11.220;2022-07-29T02:39:04;6.00;;;4.30;;
7361;SDS011;3721;44.490;11.220;2022-07-29T02:41:44;6.20;;;4.33;;
7361;SDS011;3721;44.490;11.220;2022-07-29T02:44:19;6.53;;;4.50;;
7361;SDS011;3721;44.490;11.220;2022-07-29T02:52:03;9.10;;;4.60;;
7361;SDS011;3721;44.490;11.220;2022-07-29T02:57:29;7.37;;;4.87;;
7361;SDS011;3721;44.490;11.220;2022-07-29T03:00:00;9.63;;;4.57;;
7361;SDS011;3721;44.490;11.220;2022-07-29T03:02:32;8.03;;;5.30;;
7361;SDS011;3721;44.490;11.220;2022-07-29T03:05:01;8.40;;;4.77;;
7361;SDS011;3721;44.490;11.220;2022-07-29T03:07:28;8.57;;;4.60;;
7361;SDS011;3721;44.490;11.220;2022-07-29T03:09:55;8.87;;;5.40;;
7361;SDS011;3721;44.490;11.220;2022-07-29T03:12:22;11.30;;;5.13;;
7361;SDS011;3721;44.490;11.220;2022-07-29T03:14:48;8.83;;;5.20;;
7361;SDS011;3721;44.490;11.220;2022-07-29T03:17:14;6.60;;;4.53;;
7361;SDS011;3721;44.490;11.220;2022-07-29T03:19:41;7.40;;;5.17;;
7361;SDS011;3721;44.490;11.220;2022-07-29T03:22:07;7.83;;;4.90;;
7361;SDS011;3721;44.490;11.220;2022-07-29T03:24:35;8.33;;;5.20;;
7361;SDS011;3721;44.490;11.220;2022-07-29T03:27:01;7.97;;;5.40;;
7361;SDS011;3721;44.490;11.220;2022-07-29T03:29:28;7.50;;;5.30;;
7361;SDS011;3721;44.490;11.220;2022-07-29T03:31:54;7.90;;;5.10;;
7361;SDS011;3721;44.490;11.220;2022-07-29T03:34:20;7.93;;;5.33;;
7361;SDS011;3721;44.490;11.220;2022-07-29T03:36:46;7.53;;;5.03;;
7361;SDS011;3721;44.490;11.220;2022-07-29T03:39:13;9.10;;;5.07;;
7361;SDS011;3721;44.490;11.220;2022-07-29T03:41:42;8.33;;;5.27;;
7361;SDS011;3721;44.490;11.220;2022-07-29T03:44:10;8.10;;;5.23;;
7361;SDS011;3721;44.490;11.220;2022-07-29T03:46:39;7.70;;;4.90;;
7361;SDS011;3721;44.490;11.220;2022-07-29T03:49:06;6.80;;;4.73;;
7361;SDS011;3721;44.490;11.220;2022-07-29T03:51:33;6.50;;;4.40;;
7361;SDS011;3721;44.490;11.220;2022-07-29T03:54:03;6.23;;;4.80;;
7361;SDS011;3721;44.490;11.220;2022-07-29T03:56:30;7.33;;;4.90;;
7361;SDS011;3721;44.490;11.220;2022-07-29T03:58:59;12.00;;;5.50;;
7361;SDS011;3721;44.490;11.220;2022-07-29T04:01:27;8.57;;;5.20;;
7361;SDS011;3721;44.490;11.220;2022-07-29T04:03:55;7.00;;;4.83;;
7361;SDS011;3721;44.490;11.220;2022-07-29T04:06:21;7.87;;;4.83;;
7361;SDS011;3721;44.490;11.220;2022-07-29T04:08:47;12.60;;;5.20;;
7361;SDS011;3721;44.490;11.220;2022-07-29T04:11:13;6.90;;;4.70;;
7361;SDS011;3721;44.490;11.220;2022-07-29T04:13:38;8.33;;;5.07;;
7361;SDS011;3721;44.490;11.220;2022-07-29T04:16:04;10.83;;;5.03;;
7361;SDS011;3721;44.490;11.220;2022-07-29T04:18:30;7.67;;;5.10;;
7361;SDS011;3721;44.490;11.220;2022-07-29T04:20:56;6.87;;;4.50;;
7361;SDS011;3721;44.490;11.220;2022-07-29T04:23:25;8.20;;;5.00;;
7361;SDS011;3721;44.490;11.220;2022-07-29T04:25:52;6.83;;;4.87;;
7361;SDS011;3721;44.490;11.220;2022-07-29T04:28:17;6.40;;;5.03;;
7361;SDS011;3721;44.490;11.220;2022-07-29T04:30:43;8.10;;;4.97;;
7361;SDS011;3721;44.490;11.220;2022-07-29T04:33:09;7.90;;;5.10;;
7361;SDS011;3721;44.490;11.220;2022-07-29T04:35:36;6.60;;;4.70;;
7361;SDS011;3721;44.490;11.220;2022-07-29T04:38:03;6.80;;;5.30;;
7361;SDS011;3721;44.490;11.220;2022-07-29T04:40:29;10.07;;;5.27;;
7361;SDS011;3721;44.490;11.220;2022-07-29T04:42:55;6.50;;;4.93;;
7361;SDS011;3721;44.490;11.220;2022-07-29T04:45:21;7.47;;;4.60;;
7361;SDS011;3721;44.490;11.220;2022-07-29T04:47:47;6.33;;;4.70;;
7361;SDS011;3721;44.490;11.220;2022-07-29T04:50:12;9.63;;;5.07;;
7361;SDS011;3721;44.490;11.220;2022-07-29T04:52:38;12.33;;;6.50;;
7361;SDS011;3721;44.490;11.220;2022-07-29T04:55:04;12.87;;;5.83;;
7361;SDS011;3721;44.490;11.220;2022-07-29T04:57:30;10.40;;;6.30;;
7361;SDS011;3721;44.490;11.220;2022-07-29T04:59:56;11.60;;;7.77;;
7361;SDS011;3721;44.490;11.220;2022-07-29T05:02:22;8.87;;;5.70;;
7361;SDS011;3721;44.490;11.220;2022-07-29T05:04:48;8.50;;;6.13;;
7361;SDS011;3721;44.490;11.220;2022-07-29T05:07:13;11.13;;;6.60;;
7361;SDS011;3721;44.490;11.220;2022-07-29T05:09:39;8.20;;;5.90;;
7361;SDS011;3721;44.490;11.220;2022-07-29T05:12:05;9.40;;;7.20;;
7361;SDS011;3721;44.490;11.220;2022-07-29T05:14:31;10.73;;;6.63;;
7361;SDS011;3721;44.490;11.220;2022-07-29T05:16:57;12.20;;;6.40;;
7361;SDS011;3721;44.490;11.220;2022-07-29T05:19:23;13.50;;;7.10;;
7361;SDS011;3721;44.490;11.220;2022-07-29T05:21:49;10.77;;;6.70;;
7361;SDS011;3721;44.490;11.220;2022-07-29T05:24:15;8.07;;;6.40;;
7361;SDS011;3721;44.490;11.220;2022-07-29T05:26:41;8.80;;;6.13;;
7361;SDS011;3721;44.490;11.220;2022-07-29T05:29:07;8.70;;;6.50;;
7361;SDS011;3721;44.490;11.220;2022-07-29T05:31:33;9.13;;;6.50;;
7361;SDS011;3721;44.490;11.220;2022-07-29T05:33:59;8.27;;;6.27;;
7361;SDS011;3721;44.490;11.220;2022-07-29T05:36:25;12.10;;;7.90;;
7361;SDS011;3721;44.490;11.220;2022-07-29T05:38:51;8.57;;;6.53;;
7361;SDS011;3721;44.490;11.220;2022-07-29T05:41:17;12.83;;;6.67;;
7361;SDS011;3721;44.490;11.220;2022-07-29T05:43:43;9.17;;;7.23;;
7361;SDS011;3721;44.490;11.220;2022-07-29T05:46:09;8.70;;;5.53;;
7361;SDS011;3721;44.490;11.220;2022-07-29T05:48:35;15.97;;;6.67;;
7361;SDS011;3721;44.490;11.220;2022-07-29T05:51:01;8.60;;;6.10;;
7361;SDS011;3721;44.490;11.220;2022-07-29T05:53:27;10.23;;;6.17;;
7361;SDS011;3721;44.490;11.220;2022-07-29T05:55:53;10.63;;;6.50;;
7361;SDS011;3721;44.490;11.220;2022-07-29T05:58:19;10.83;;;7.43;;
7361;SDS011;3721;44.490;11.220;2022-07-29T06:00:44;12.17;;;6.80;;
7361;SDS011;3721;44.490;11.220;2022-07-29T06:03:11;9.37;;;6.13;;
7361;SDS011;3721;44.490;11.220;2022-07-29T06:05:37;7.37;;;5.57;;
7361;SDS011;3721;44.490;11.220;2022-07-29T06:08:03;10.80;;;6.37;;
7361;SDS011;3721;44.490;11.220;2022-07-29T06:10:32;9.63;;;6.83;;
7361;SDS011;3721;44.490;11.220;2022-07-29T06:12:59;15.07;;;6.63;;
7361;SDS011;3721;44.490;11.220;2022-07-29T06:15:25;8.60;;;6.83;;
7361;SDS011;3721;44.490;11.220;2022-07-29T06:17:51;11.73;;;7.20;;
7361;SDS011;3721;44.490;11.220;2022-07-29T06:20:17;9.13;;;6.37;;
7361;SDS011;3721;44.490;11.220;2022-07-29T06:22:44;9.80;;;6.27;;
7361;SDS011;3721;44.490;11.220;2022-07-29T06:25:09;8.40;;;6.07;;
7361;SDS011;3721;44.490;11.220;2022-07-29T06:27:35;8.30;;;5.50;;
7361;SDS011;3721;44.490;11.220;2022-07-29T06:30:01;9.70;;;6.27;;
7361;SDS011;3721;44.490;11.220;2022-07-29T06:32:27;10.30;;;6.30;;
7361;SDS011;3721;44.490;11.220;2022-07-29T06:34:53;8.07;;;5.53;;
7361;SDS011;3721;44.490;11.220;2022-07-29T06:37:19;9.30;;;6.40;;
7361;SDS011;3721;44.490;11.220;2022-07-29T06:39:44;9.17;;;6.40;;
7361;SDS011;3721;44.490;11.220;2022-07-29T06:42:10;8.97;;;6.03;;
7361;SDS011;3721;44.490;11.220;2022-07-29T06:44:36;7.50;;;6.00;;
7361;SDS011;3721;44.490;11.220;2022-07-29T06:47:02;6.50;;;5.13;;
7361;SDS011;3721;44.490;11.220;2022-07-29T06:49:28;8.10;;;5.50;;
7361;SDS011;3721;44.490;11.220;2022-07-29T06:51:54;7.20;;;5.00;;
7361;SDS011;3721;44.490;11.220;2022-07-29T06:54:20;11.03;;;5.87;;
7361;SDS011;3721;44.490;11.220;2022-07-29T06:56:47;11.03;;;6.10;;
7361;SDS011;3721;44.490;11.220;2022-07-29T06:59:13;13.97;;;6.20;;
7361;SDS011;3721;44.490;11.220;2022-07-29T07:01:40;9.47;;;6.50;;
7361;SDS011;3721;44.490;11.220;2022-07-29T07:04:07;10.90;;;5.80;;
7361;SDS011;3721;44.490;11.220;2022-07-29T07:06:36;11.87;;;5.23;;
7361;SDS011;3721;44.490;11.220;2022-07-29T07:09:02;9.30;;;5.10;;
7361;SDS011;3721;44.490;11.220;2022-07-29T07:11:28;9.10;;;4.93;;
7361;SDS011;3721;44.490;11.220;2022-07-29T07:13:54;8.27;;;4.90;;
7361;SDS011;3721;44.490;11.220;2022-07-29T07:16:20;8.37;;;5.20;;
7361;SDS011;3721;44.490;11.220;2022-07-29T07:18:46;8.50;;;5.70;;
7361;SDS011;3721;44.490;11.220;2022-07-29T07:21:12;7.53;;;5.60;;
7361;SDS011;3721;44.490;11.220;2022-07-29T07:23:37;8.00;;;5.40;;
7361;SDS011;3721;44.490;11.220;2022-07-29T07:26:03;14.37;;;6.53;;
7361;SDS011;3721;44.490;11.220;2022-07-29T07:28:30;9.57;;;6.30;;
7361;SDS011;3721;44.490;11.220;2022-07-29T07:30:56;8.67;;;5.50;;
7361;SDS011;3721;44.490;11.220;2022-07-29T07:33:22;9.00;;;5.77;;
7361;SDS011;3721;44.490;11.220;2022-07-29T07:35:48;12.93;;;6.50;;
7361;SDS011;3721;44.490;11.220;2022-07-29T07:38:13;10.80;;;6.10;;
7361;SDS011;3721;44.490;11.220;2022-07-29T07:40:39;16.27;;;5.80;;
7361;SDS011;3721;44.490;11.220;2022-07-29T07:43:06;12.23;;;6.43;;
7361;SDS011;3721;44.490;11.220;2022-07-29T07:45:31;10.70;;;5.93;;
7361;SDS011;3721;44.490;11.220;2022-07-29T07:47:57;12.00;;;5.40;;
7361;SDS011;3721;44.490;11.220;2022-07-29T07:50:23;13.90;;;5.37;;
7361;SDS011;3721;44.490;11.220;2022-07-29T07:52:53;11.53;;;6.40;;
7361;SDS011;3721;44.490;11.220;2022-07-29T07:55:20;7.93;;;6.10;;
7361;SDS011;3721;44.490;11.220;2022-07-29T07:57:46;9.90;;;5.30;;
7361;SDS011;3721;44.490;11.220;2022-07-29T08:00:12;11.83;;;5.93;;
7361;SDS011;3721;44.490;11.220;2022-07-29T08:02:39;12.40;;;6.13;;
7361;SDS011;3721;44.490;11.220;2022-07-29T08:05:07;11.30;;;6.03;;
7361;SDS011;3721;44.490;11.220;2022-07-29T08:07:33;7.53;;;5.37;;
7361;SDS011;3721;44.490;11.220;2022-07-29T08:09:59;7.30;;;4.80;;
7361;SDS011;3721;44.490;11.220;2022-07-29T08:12:25;8.10;;;5.40;;
7361;SDS011;3721;44.490;11.220;2022-07-29T08:14:50;8.53;;;5.70;;
7361;SDS011;3721;44.490;11.220;2022-07-29T08:17:16;14.00;;;6.10;;
7361;SDS011;3721;44.490;11.220;2022-07-29T08:19:42;8.47;;;5.27;;
7361;SDS011;3721;44.490;11.220;2022-07-29T08:22:08;9.73;;;5.93;;
7361;SDS011;3721;44.490;11.220;2022-07-29T08:24:33;9.53;;;6.90;;
7361;SDS011;3721;44.490;11.220;2022-07-29T08:27:09;10.63;;;5.70;;
7361;SDS011;3721;44.490;11.220;2022-07-29T08:29:35;11.87;;;5.60;;
7361;SDS011;3721;44.490;11.220;2022-07-29T08:32:02;9.87;;;5.83;;
7361;SDS011;3721;44.490;11.220;2022-07-29T08:34:28;9.17;;;6.20;;
7361;SDS011;3721;44.490;11.220;2022-07-29T08:36:55;11.03;;;6.20;;
7361;SDS011;3721;44.490;11.220;2022-07-29T08:39:21;8.30;;;5.30;;
7361;SDS011;3721;44.490;11.220;2022-07-29T08:41:48;7.67;;;5.10;;
7361;SDS011;3721;44.490;11.220;2022-07-29T08:44:16;7.63;;;5.43;;
7361;SDS011;3721;44.490;11.220;2022-07-29T08:46:44;8.87;;;5.73;;
7361;SDS011;3721;44.490;11.220;2022-07-29T08:49:10;8.13;;;5.90;;
7361;SDS011;3721;44.490;11.220;2022-07-29T08:51:36;11.83;;;6.50;;
7361;SDS011;3721;44.490;11.220;2022-07-29T08:54:05;7.33;;;5.67;;
7361;SDS011;3721;44.490;11.220;2022-07-29T08:56:33;12.07;;;5.67;;
7361;SDS011;3721;44.490;11.220;2022-07-29T08:58:59;13.13;;;5.40;;
7361;SDS011;3721;44.490;11.220;2022-07-29T09:01:30;7.53;;;5.13;;
7361;SDS011;3721;44.490;11.220;2022-07-29T09:03:58;9.37;;;5.50;;
7361;SDS011;3721;44.490;11.220;2022-07-29T09:06:26;9.53;;;5.43;;
7361;SDS011;3721;44.490;11.220;2022-07-29T09:08:58;10.40;;;6.40;;
7361;SDS011;3721;44.490;11.220;2022-07-29T09:11:24;7.77;;;5.80;;
7361;SDS011;3721;44.490;11.220;2022-07-29T09:13:50;7.33;;;5.37;;
7361;SDS011;3721;44.490;11.220;2022-07-29T09:16:16;7.37;;;4.80;;
7361;SDS011;3721;44.490;11.220;2022-07-29T09:18:43;8.23;;;5.27;;
7361;SDS011;3721;44.490;11.220;2022-07-29T09:21:11;7.10;;;4.67;;
7361;SDS011;3721;44.490;11.220;2022-07-29T09:24:18;12.63;;;5.13;;
7361;SDS011;3721;44.490;11.220;2022-07-29T09:26:44;8.10;;;5.27;;
7361;SDS011;3721;44.490;11.220;2022-07-29T09:29:14;9.83;;;4.90;;
7361;SDS011;3721;44.490;11.220;2022-07-29T09:31:43;13.37;;;5.30;;
7361;SDS011;3721;44.490;11.220;2022-07-29T09:34:10;11.07;;;5.00;;
7361;SDS011;3721;44.490;11.220;2022-07-29T09:36:44;14.13;;;6.70;;
7361;SDS011;3721;44.490;11.220;2022-07-29T09:39:11;8.60;;;4.90;;
7361;SDS011;3721;44.490;11.220;2022-07-29T09:41:48;12.27;;;5.40;;
7361;SDS011;3721;44.490;11.220;2022-07-29T09:44:17;9.27;;;4.63;;
7361;SDS011;3721;44.490;11.220;2022-07-29T09:47:03;11.40;;;4.63;;
7361;SDS011;3721;44.490;11.220;2022-07-29T09:49:33;11.43;;;4.97;;
7361;SDS011;3721;44.490;11.220;2022-07-29T09:52:15;9.73;;;4.63;;
7361;SDS011;3721;44.490;11.220;2022-07-29T09:54:41;8.10;;;4.63;;
7361;SDS011;3721;44.490;11.220;2022-07-29T09:57:08;6.93;;;4.47;;
7361;SDS011;3721;44.490;11.220;2022-07-29T09:59:55;9.20;;;4.13;;
7361;SDS011;3721;44.490;11.220;2022-07-29T10:02:32;7.23;;;4.83;;
7361;SDS011;3721;44.490;11.220;2022-07-29T10:05:00;5.87;;;4.57;;
7361;SDS011;3721;44.490;11.220;2022-07-29T10:07:42;7.20;;;5.30;;
7361;SDS011;3721;44.490;11.220;2022-07-29T10:10:46;8.50;;;5.13;;
7361;SDS011;3721;44.490;11.220;2022-07-29T10:13:10;9.83;;;4.87;;
7361;SDS011;3721;44.490;11.220;2022-07-29T10:15:38;8.20;;;4.77;;
7361;SDS011;3721;44.490;11.220;2022-07-29T10:18:09;7.17;;;5.07;;
7361;SDS011;3721;44.490;11.220;2022-07-29T10:20:37;7.97;;;4.60;;
7361;SDS011;3721;44.490;11.220;2022-07-29T10:23:03;11.47;;;5.10;;
7361;SDS011;3721;44.490;11.220;2022-07-29T10:25:30;9.63;;;5.20;;
7361;SDS011;3721;44.490;11.220;2022-07-29T10:27:56;8.43;;;4.73;;
7361;SDS011;3721;44.490;11.220;2022-07-29T10:30:24;8.47;;;4.90;;
7361;SDS011;3721;44.490;11.220;2022-07-29T10:38:30;8.80;;;4.90;;
7361;SDS011;3721;44.490;11.220;2022-07-29T10:41:11;7.47;;;5.03;;
7361;SDS011;3721;44.490;11.220;2022-07-29T10:44:13;7.43;;;5.13;;
7361;SDS011;3721;44.490;11.220;2022-07-29T10:46:41;7.03;;;4.63;;
7361;SDS011;3721;44.490;11.220;2022-07-29T10:54:46;8.90;;;4.30;;
7361;SDS011;3721;44.490;11.220;2022-07-29T10:57:19;7.00;;;4.40;;
7361;SDS011;3721;44.490;11.220;2022-07-29T11:05:03;5.87;;;4.43;;
7361;SDS011;3721;44.490;11.220;2022-07-29T11:07:37;8.47;;;4.10;;
7361;SDS011;3721;44.490;11.220;2022-07-29T11:15:11;7.70;;;4.60;;
7361;SDS011;3721;44.490;11.220;2022-07-29T11:23:17;8.20;;;4.03;;
7361;SDS011;3721;44.490;11.220;2022-07-29T11:25:44;7.00;;;4.63;;
7361;SDS011;3721;44.490;11.220;2022-07-29T11:28:16;6.63;;;4.10;;
7361;SDS011;3721;44.490;11.220;2022-07-29T11:33:33;6.43;;;3.83;;
7361;SDS011;3721;44.490;11.220;2022-07-29T11:36:12;6.40;;;3.97;;
7361;SDS011;3721;44.490;11.220;2022-07-29T11:38:39;6.77;;;4.53;;
7361;SDS011;3721;44.490;11.220;2022-07-29T11:41:25;6.80;;;4.27;;
7361;SDS011;3721;44.490;11.220;2022-07-29T11:46:44;5.53;;;3.78;;
7361;SDS011;3721;44.490;11.220;2022-07-29T11:49:23;6.47;;;4.30;;
7361;SDS011;3721;44.490;11.220;2022-07-29T11:51:54;6.28;;;4.55;;
7361;SDS011;3721;44.490;11.220;2022-07-29T11:54:25;7.67;;;4.77;;
7361;SDS011;3721;44.490;11.220;2022-07-29T11:56:59;6.07;;;3.67;;
7361;SDS011;3721;44.490;11.220;2022-07-29T11:59:25;6.90;;;4.60;;
7361;SDS011;3721;44.490;11.220;2022-07-29T12:01:58;11.87;;;4.43;;
7361;SDS011;3721;44.490;11.220;2022-07-29T12:04:24;6.00;;;3.80;;
7361;SDS011;3721;44.490;11.220;2022-07-29T12:06:54;5.63;;;4.03;;
7361;SDS011;3721;44.490;11.220;2022-07-29T12:09:21;7.80;;;4.37;;
7361;SDS011;3721;44.490;11.220;2022-07-29T12:11:57;7.20;;;4.27;;
7361;SDS011;3721;44.490;11.220;2022-07-29T12:14:27;6.30;;;4.20;;
7361;SDS011;3721;44.490;11.220;2022-07-29T12:16:58;5.00;;;3.70;;
7361;SDS011;3721;44.490;11.220;2022-07-29T12:19:24;7.07;;;4.18;;
7361;SDS011;3721;44.490;11.220;2022-07-29T12:21:54;7.07;;;4.47;;
7361;SDS011;3721;44.490;11.220;2022-07-29T12:24:20;5.22;;;3.78;;
7361;SDS011;3721;44.490;11.220;2022-07-29T12:26:57;8.18;;;4.47;;
7361;SDS011;3721;44.490;11.220;2022-07-29T12:29:23;7.10;;;4.40;;
7361;SDS011;3721;44.490;11.220;2022-07-29T12:31:52;9.37;;;4.30;;
7361;SDS011;3721;44.490;11.220;2022-07-29T12:34:19;12.00;;;4.27;;
7361;SDS011;3721;44.490;11.220;2022-07-29T12:36:48;8.45;;;3.88;;
7361;SDS011;3721;44.490;11.220;2022-07-29T12:39:15;11.30;;;4.70;;
7361;SDS011;3721;44.490;11.220;2022-07-29T12:41:42;7.37;;;4.20;;
7361;SDS011;3721;44.490;11.220;2022-07-29T12:44:08;7.77;;;4.60;;
7361;SDS011;3721;44.490;11.220;2022-07-29T12:46:35;7.10;;;4.30;;
7361;SDS011;3721;44.490;11.220;2022-07-29T12:49:01;7.57;;;4.03;;
7361;SDS011;3721;44.490;11.220;2022-07-29T12:51:37;6.73;;;4.33;;
7361;SDS011;3721;44.490;11.220;2022-07-29T12:54:08;5.57;;;3.70;;
7361;SDS011;3721;44.490;11.220;2022-07-29T12:56:36;6.90;;;4.10;;
7361;SDS011;3721;44.490;11.220;2022-07-29T13:01:57;7.60;;;4.13;;
7361;SDS011;3721;44.490;11.220;2022-07-29T13:04:31;7.90;;;4.57;;
7361;SDS011;3721;44.490;11.220;2022-07-29T13:07:05;11.83;;;4.80;;
7361;SDS011;3721;44.490;11.220;2022-07-29T13:09:45;6.10;;;4.10;;
7361;SDS011;3721;44.490;11.220;2022-07-29T13:12:12;6.67;;;4.67;;
7361;SDS011;3721;44.490;11.220;2022-07-29T13:14:40;7.32;;;4.43;;
7361;SDS011;3721;44.490;11.220;2022-07-29T13:17:16;6.80;;;4.73;;
7361;SDS011;3721;44.490;11.220;2022-07-29T13:19:49;6.53;;;4.40;;
7361;SDS011;3721;44.490;11.220;2022-07-29T13:22:17;7.53;;;4.90;;
7361;SDS011;3721;44.490;11.220;2022-07-29T13:24:51;10.17;;;4.83;;
7361;SDS011;3721;44.490;11.220;2022-07-29T13:27:19;7.87;;;4.97;;
7361;SDS011;3721;44.490;11.220;2022-07-29T13:29:50;14.20;;;4.57;;
7361;SDS011;3721;44.490;11.220;2022-07-29T13:32:17;7.90;;;4.60;;
7361;SDS011;3721;44.490;11.220;2022-07-29T13:34:46;7.33;;;4.20;;
7361;SDS011;3721;44.490;11.220;2022-07-29T13:37:12;8.93;;;4.37;;
7361;SDS011;3721;44.490;11.220;2022-07-29T13:39:37;6.80;;;4.20;;
7361;SDS011;3721;44.490;11.220;2022-07-29T13:42:04;7.33;;;3.87;;
7361;SDS011;3721;44.490;11.220;2022-07-29T13:44:31;6.50;;;4.00;;
7361;SDS011;3721;44.490;11.220;2022-07-29T13:46:57;12.33;;;4.60;;
7361;SDS011;3721;44.490;11.220;2022-07-29T13:49:24;7.17;;;4.13;;
7361;SDS011;3721;44.490;11.220;2022-07-29T13:51:50;7.47;;;4.60;;
7361;SDS011;3721;44.490;11.220;2022-07-29T13:54:16;7.80;;;4.93;;
7361;SDS011;3721;44.490;11.220;2022-07-29T13:56:42;6.47;;;4.63;;
7361;SDS011;3721;44.490;11.220;2022-07-29T13:59:07;5.43;;;4.20;;
7361;SDS011;3721;44.490;11.220;2022-07-29T14:01:36;5.90;;;3.70;;
7361;SDS011;3721;44.490;11.220;2022-07-29T14:04:02;10.40;;;4.67;;
7361;SDS011;3721;44.490;11.220;2022-07-29T14:06:28;7.20;;;4.97;;
7361;SDS011;3721;44.490;11.220;2022-07-29T14:08:54;9.20;;;4.90;;
7361;SDS011;3721;44.490;11.220;2022-07-29T14:11:19;6.27;;;4.33;;
7361;SDS011;3721;44.490;11.220;2022-07-29T14:13:45;6.37;;;4.17;;
7361;SDS011;3721;44.490;11.220;2022-07-29T14:16:11;7.23;;;4.70;;
7361;SDS011;3721;44.490;11.220;2022-07-29T14:18:37;9.37;;;4.80;;
7361;SDS011;3721;44.490;11.220;2022-07-29T14:21:03;7.93;;;4.70;;
7361;SDS011;3721;44.490;11.220;2022-07-29T14:23:29;7.00;;;4.60;;
7361;SDS011;3721;44.490;11.220;2022-07-29T14:25:55;8.10;;;4.50;;
7361;SDS011;3721;44.490;11.220;2022-07-29T14:28:20;6.43;;;4.30;;
7361;SDS011;3721;44.490;11.220;2022-07-29T14:30:46;8.20;;;4.67;;
7361;SDS011;3721;44.490;11.220;2022-07-29T14:33:12;6.27;;;4.80;;
7361;SDS011;3721;44.490;11.220;2022-07-29T14:35:38;10.00;;;4.43;;
7361;SDS011;3721;44.490;11.220;2022-07-29T14:38:04;9.50;;;4.57;;
7361;SDS011;3721;44.490;11.220;2022-07-29T14:40:29;5.83;;;4.50;;
7361;SDS011;3721;44.490;11.220;2022-07-29T14:42:55;6.80;;;5.00;;
7361;SDS011;3721;44.490;11.220;2022-07-29T14:45:22;8.90;;;4.53;;
7361;SDS011;3721;44.490;11.220;2022-07-29T14:47:48;7.13;;;4.80;;
7361;SDS011;3721;44.490;11.220;2022-07-29T14:50:15;7.23;;;4.70;;
7361;SDS011;3721;44.490;11.220;2022-07-29T14:52:43;10.47;;;4.93;;
7361;SDS011;3721;44.490;11.220;2022-07-29T14:55:09;6.10;;;4.23;;
7361;SDS011;3721;44.490;11.220;2022-07-29T14:57:34;7.90;;;4.57;;
7361;SDS011;3721;44.490;11.220;2022-07-29T15:00:00;8.83;;;4.60;;
7361;SDS011;3721;44.490;11.220;2022-07-29T15:02:27;15.67;;;4.90;;
7361;SDS011;3721;44.490;11.220;2022-07-29T15:04:53;9.27;;;4.90;;
7361;SDS011;3721;44.490;11.220;2022-07-29T15:07:21;7.87;;;4.77;;
7361;SDS011;3721;44.490;11.220;2022-07-29T15:09:47;7.67;;;5.10;;
7361;SDS011;3721;44.490;11.220;2022-07-29T15:12:12;8.90;;;5.33;;
7361;SDS011;3721;44.490;11.220;2022-07-29T15:14:38;8.90;;;4.63;;
7361;SDS011;3721;44.490;11.220;2022-07-29T15:17:04;10.77;;;5.30;;
7361;SDS011;3721;44.490;11.220;2022-07-29T15:19:30;9.67;;;4.53;;
7361;SDS011;3721;44.490;11.220;2022-07-29T15:21:56;6.67;;;4.50;;
7361;SDS011;3721;44.490;11.220;2022-07-29T15:24:21;8.60;;;4.60;;
7361;SDS011;3721;44.490;11.220;2022-07-29T15:26:47;7.33;;;4.90;;
7361;SDS011;3721;44.490;11.220;2022-07-29T15:29:13;8.40;;;4.30;;
7361;SDS011;3721;44.490;11.220;2022-07-29T15:31:39;9.47;;;4.83;;
7361;SDS011;3721;44.490;11.220;2022-07-29T15:34:05;7.00;;;4.57;;
7361;SDS011;3721;44.490;11.220;2022-07-29T15:36:31;8.47;;;4.70;;
7361;SDS011;3721;44.490;11.220;2022-07-29T15:38:57;7.73;;;4.80;;
7361;SDS011;3721;44.490;11.220;2022-07-29T15:41:23;8.83;;;4.80;;
7361;SDS011;3721;44.490;11.220;2022-07-29T15:43:49;11.30;;;5.10;;
7361;SDS011;3721;44.490;11.220;2022-07-29T15:46:16;7.63;;;4.60;;
7361;SDS011;3721;44.490;11.220;2022-07-29T15:49:01;9.10;;;4.93;;
7361;SDS011;3721;44.490;11.220;2022-07-29T15:51:28;8.40;;;4.60;;
7361;SDS011;3721;44.490;11.220;2022-07-29T15:53:55;9.80;;;4.60;;
7361;SDS011;3721;44.490;11.220;2022-07-29T15:56:21;12.57;;;4.83;;
7361;SDS011;3721;44.490;11.220;2022-07-29T15:58:47;7.83;;;5.10;;
7361;SDS011;3721;44.490;11.220;2022-07-29T16:01:13;8.13;;;4.90;;